Home > Products > Valid Products > TAF

000
FTUS45 KTFX 232300 RRA
TAFCTB
TAF
KCTB 232343Z 2400/2424 25013KT P6SM SCT090 BKN150
     FM240200 20008KT P6SM BKN150
     FM241200 25011KT P6SM SCT120 BKN150
     FM241700 23017G25KT P6SM SCT120 BKN150=



000
FTUS45 KTFX 232300 RRA
TAFBZN
TAF
KBZN 232343Z 2400/2424 22007KT P6SM VCTS SCT060CB BKN120
     FM240200 VRB06KT P6SM BKN150
     FM241700 15008KT P6SM SCT080 BKN150=



000
FTUS45 KTFX 232300 RRA
TAFGTF
TAF
KGTF 232343Z 2400/2424 21010KT P6SM SCT090 BKN150
     FM241200 22011KT P6SM SCT120
     FM241700 23017G25KT P6SM SCT120 BKN150=



000
FTUS45 KTFX 232300 RRA
TAFHVR
TAF
KHVR 232343Z 2400/2424 31010KT P6SM SCT150
     FM240200 VRB05KT P6SM VCSH SCT080 BKN150
     FM240400 11005KT P6SM SCT100
     FM241800 20010KT P6SM SCT080 BKN150=



000
FTUS45 KTFX 232300 RRA
TAFLWT
TAF
KLWT 232343Z 2400/2424 VRB05KT P6SM SCT150
     FM240300 VRB06KT P6SM VCSH SCT080 BKN150
     FM240500 14006KT P6SM SCT120 BKN150=



000
FTUS45 KTFX 232300 RRA
TAFHLN
TAF
KHLN 232343Z 2400/2424 23008KT P6SM SCT100 BKN150
     FM240200 VRB05KT P6SM SCT120=



000
FTUS45 KTFX 232100 AAA
TAFHLN
TAF AMD
KHLN 232152Z 2322/2418 23008KT P6SM VCTS SCT070CB BKN120
      TEMPO 2322/2324 VRB15G30KT 5SM -TSRA BKN050CB
     FM240200 VRB05KT P6SM SCT080 BKN150=



000
FTUS45 KTFX 232000 AAA
TAFGTF
TAF AMD
KGTF 232022Z 2320/2418 23010KT P6SM BKN180=



000
FTUS45 KTFX 232000 AAA
TAFCTB
TAF AMD
KCTB 232021Z 2320/2418 27010KT P6SM BKN150
     FM240200 20008KT P6SM BKN150=



000
FTUS45 KTFX 232000 AAA
TAFHVR
TAF AMD
KHVR 232020Z 2320/2418 31010KT P6SM BKN150
     FM240400 VRB06KT P6SM BKN150=



000
FTUS45 KTFX 231700
TAFGTF
TAF
KGTF 231735Z 2318/2418 22010KT P6SM SCT150
     FM232000 25012G25KT P6SM BKN150
     FM240200 21010KT P6SM BKN180=



000
FTUS45 KTFX 231700
TAFHLN
TAF
KHLN 231735Z 2318/2418 VRB06KT P6SM BKN150
     FM232100 23008KT P6SM VCTS SCT070CB BKN120
     FM240200 VRB05KT P6SM SCT080 BKN150=



000
FTUS45 KTFX 231700
TAFLWT
TAF
KLWT 231735Z 2318/2418 27006KT P6SM SCT180
     FM232100 28010G22KT P6SM SCT090 BKN150
     FM240300 VRB06KT P6SM BKN150=



000
FTUS45 KTFX 231700
TAFBZN
TAF
KBZN 231735Z 2318/2418 VRB06KT P6SM SCT150
     FM232100 22007KT P6SM VCTS SCT060CB BKN120
     FM240200 VRB06KT P6SM BKN150=



000
FTUS45 KTFX 231700
TAFHVR
TAF
KHVR 231735Z 2318/2418 22018KT P6SM SCT150
     FM232100 27010KT P6SM SCT150
     FM240000 30008KT P6SM BKN150
     FM240400 VRB06KT P6SM BKN150=



000
FTUS45 KTFX 231700
TAFCTB
TAF
KCTB 231735Z 2318/2418 25014G28KT P6SM SCT060 OVC100
     FM240200 20008KT P6SM BKN150=



000
FTUS45 KTFX 231700 AAA
TAFHVR
TAF AMD
KHVR 231700Z 2317/2412 23015KT P6SM SCT150
     FM232300 27011KT P6SM SCT100 BKN180
     FM240200 VRB06KT P6SM SCT070 BKN130=



000
FTUS45 KTFX 231100 RRA
TAFGTF
TAF
KGTF 231143Z 2312/2412 22011KT P6SM SCT090 BKN150=



000
FTUS45 KTFX 231100 RRA
TAFCTB
TAF
KCTB 231143Z 2312/2412 25011KT P6SM SCT060 BKN110=



000
FTUS45 KTFX 231100 RRA
TAFHLN
TAF
KHLN 231143Z 2312/2412 VRB05KT P6SM SCT180
     FM232100 23008KT P6SM VCTS SCT070CB BKN120
     FM240200 VRB05KT P6SM SCT080 BKN140=



000
FTUS45 KTFX 231100 RRA
TAFBZN
TAF
KBZN 231143Z 2312/2412 VRB05KT P6SM SCT200
     FM232100 22007KT P6SM VCTS SCT060CB BKN100
     FM240200 VRB05KT P6SM SCT070 BKN130=



000
FTUS45 KTFX 231100 RRA
TAFLWT
TAF
KLWT 231143Z 2312/2412 VRB05KT P6SM SKC
     FM231700 29011KT P6SM SCT100 BKN180
     FM240200 13006KT P6SM SCT080 BKN150=



000
FTUS45 KTFX 231100 RRA
TAFHVR
TAF
KHVR 231143Z 2312/2412 24007KT P6SM SKC
     FM231700 27011KT P6SM SCT100 BKN180
     FM240200 VRB06KT P6SM SCT070 BKN130=



000
FTUS45 KTFX 230500
TAFHLN
TAF
KHLN 230520Z 2306/2406 VRB03KT P6SM SCT100 BKN140
     FM230900 VRB05KT P6SM SCT080
     FM232200 24006KT P6SM VCTS SCT070CB BKN120
     FM240200 VRB04KT P6SM SCT090 BKN150=



000
FTUS45 KTFX 230500
TAFGTF
TAF
KGTF 230520Z 2306/2406 22010KT P6SM FEW080 BKN150
     FM231100 21007KT P6SM SCT120
     FM231900 24014KT P6SM SCT080 BKN130
     FM240200 21009KT P6SM SCT090 BKN150=



000
FTUS45 KTFX 230500
TAFHVR
TAF
KHVR 230520Z 2306/2406 22005KT P6SM SCT150
     FM231700 25009KT P6SM SCT100 BKN150
     FM240200 13006KT P6SM SCT080 BKN150=



000
FTUS45 KTFX 230500
TAFLWT
TAF
KLWT 230520Z 2306/2406 22005KT P6SM SCT100 BKN150
     FM230800 VRB04KT P6SM SCT150
     FM231700 27008KT P6SM SCT100 BKN150
     FM240200 13006KT P6SM SCT080 BKN150=



000
FTUS45 KTFX 230500
TAFCTB
TAF
KCTB 230520Z 2306/2406 28009KT P6SM BKN150
     FM231100 27011KT P6SM SCT080 BKN150
     FM231900 24010KT P6SM SCT070 BKN150=



000
FTUS45 KTFX 230500
TAFBZN
TAF
KBZN 230520Z 2306/2406 VRB06KT P6SM SCT070 BKN110
     FM230900 VRB05KT P6SM SCT080
     FM232300 23007KT P6SM VCTS SCT060CB BKN090
     FM240300 VRB04KT P6SM SCT080 BKN120=



000
FTUS45 KTFX 222300
TAFGTF
TAF
KGTF 222320Z 2300/2324 22010KT P6SM FEW080 SCT150
     FM230300 21007KT P6SM SCT120
     FM232100 22010KT P6SM SCT080 BKN130=



000
FTUS45 KTFX 222300
TAFHVR
TAF
KHVR 222320Z 2300/2324 22005KT P6SM FEW150=



000
FTUS45 KTFX 222300
TAFHLN
TAF
KHLN 222320Z 2300/2324 VRB03KT P6SM SCT100 BKN140
     FM230400 VRB05KT P6SM SCT080
     FM232200 24006KT P6SM VCSH SCT070 BKN120=



000
FTUS45 KTFX 222300
TAFCTB
TAF
KCTB 222320Z 2300/2324 24009KT P6SM SCT150=



000
FTUS45 KTFX 222300
TAFLWT
TAF
KLWT 222320Z 2300/2324 22005KT P6SM SCT100 BKN150
     FM230400 VRB04KT P6SM SCT150=



000
FTUS45 KTFX 222300
TAFBZN
TAF
KBZN 222320Z 2300/2324 VRB06KT P6SM SCT070 BKN110
     FM230600 VRB03KT P6SM SCT080=



000
FTUS45 KTFX 221700
TAFBZN
TAF
KBZN 221740Z 2218/2318 VRB03KT P6SM VCSH SCT090 BKN120
     FM222200 VRB06KT P6SM SCT120=



000
FTUS45 KTFX 221700
TAFHLN
TAF
KHLN 221740Z 2218/2318 VRB03KT P6SM SCT100=



000
FTUS45 KTFX 221700
TAFGTF
TAF
KGTF 221740Z 2218/2318 22010KT P6SM SCT150=



000
FTUS45 KTFX 221700
TAFCTB
TAF
KCTB 221740Z 2218/2318 28006KT P6SM SCT150=



000
FTUS45 KTFX 221700
TAFHVR
TAF
KHVR 221740Z 2218/2318 22005KT P6SM FEW150=



000
FTUS45 KTFX 221700
TAFLWT
TAF
KLWT 221740Z 2218/2318 VRB05KT P6SM FEW150
     FM222000 22005KT P6SM SCT150=



000
FTUS45 KTFX 221100
TAFGTF
TAF
KGTF 221127Z 2212/2312 20010KT P6SM SCT180
     FM221800 31008KT P6SM SCT090 BKN150
     FM230200 23007KT P6SM BKN180=



000
FTUS45 KTFX 221100
TAFLWT
TAF
KLWT 221127Z 2212/2312 13006KT P6SM SCT180
     FM221800 VRB06KT P6SM SCT090 BKN150
     FM230200 26007KT P6SM SCT180=



000
FTUS45 KTFX 221100
TAFCTB
TAF
KCTB 221127Z 2212/2312 VRB05KT P6SM SKC
     FM221800 29011KT P6SM FEW100 BKN180=



000
FTUS45 KTFX 221100
TAFHVR
TAF
KHVR 221127Z 2212/2312 VRB06KT P6SM SKC=



000
FTUS45 KTFX 221100
TAFHLN
TAF
KHLN 221127Z 2212/2312 VRB05KT P6SM SCT080 BKN150
     FM221700 27008KT P6SM SCT070 BKN110
     FM230300 25006KT P6SM FEW100 BKN180=



000
FTUS45 KTFX 221100
TAFBZN
TAF
KBZN 221127Z 2212/2312 VRB05KT P6SM VCSH SCT040 BKN070
      TEMPO 2214/2218 -SHRA BKN040
     FM222000 23008KT P6SM VCTS SCT050CB BKN080
     FM230200 VRB05KT P6SM VCSH SCT060 BKN090
     FM230600 15005KT P6SM SCT080 BKN180=



000
FTUS45 KTFX 220500
TAFGTF
TAF
KGTF 220520Z 2206/2306 17007KT P6SM SCT150
     FM221800 23008KT P6SM SCT100 BKN150
     FM230200 24006KT P6SM SCT150=



000
FTUS45 KTFX 220500
TAFHVR
TAF
KHVR 220520Z 2206/2306 10005KT P6SM SKC
     FM222000 15006KT P6SM SKC=



000
FTUS45 KTFX 220500
TAFBZN
TAF
KBZN 220520Z 2206/2306 15004KT P6SM SCT100 BKN150
     FM221200 19005KT P6SM SCT080 BKN120
     FM222000 21007KT P6SM VCTS SCT060CB BKN090
     FM230200 19006KT P6SM BKN120=



000
FTUS45 KTFX 220500
TAFCTB
TAF
KCTB 220520Z 2206/2306 17005KT P6SM FEW150
     FM221800 28012KT P6SM FEW100 SCT150=



000
FTUS45 KTFX 220500
TAFHLN
TAF
KHLN 220520Z 2206/2306 VRB05KT P6SM BKN150
     FM221700 22006KT P6SM SCT090 BKN150
     FM230200 24006KT P6SM BKN150=



000
FTUS45 KTFX 220500
TAFLWT
TAF
KLWT 220520Z 2206/2306 12006KT P6SM SCT150
     FM221900 19007KT P6SM SCT120=



000
FTUS45 KTFX 212300
TAFCTB
TAF
KCTB 212337Z 2200/2224 15012G18KT P6SM SKC
     FM220200 21007KT P6SM SKC
     FM221800 28011KT P6SM SKC=



000
FTUS45 KTFX 212300
TAFLWT
TAF
KLWT 212337Z 2200/2224 10006KT P6SM SKC
     FM221900 19007KT P6SM SKC=



000
FTUS45 KTFX 212300
TAFGTF
TAF
KGTF 212337Z 2200/2224 04007KT P6SM SKC
     FM220300 21006KT P6SM SKC
     FM221800 23008KT P6SM SCT100 SCT150=



000
FTUS45 KTFX 212300
TAFHLN
TAF
KHLN 212337Z 2200/2224 VRB05KT P6SM FEW150
     FM221700 22006KT P6SM SCT120
     FM222000 23007KT P6SM SCT080 BKN150=



000
FTUS45 KTFX 212300
TAFHVR
TAF
KHVR 212337Z 2200/2224 15006KT P6SM SKC
     FM220200 11007KT P6SM SKC
     FM221900 23006KT P6SM SKC=



000
FTUS45 KTFX 212300
TAFBZN
TAF
KBZN 212337Z 2200/2224 15005KT P6SM SCT100 BKN150
     FM221200 19005KT P6SM SCT080 BKN120
     FM221700 22007KT P6SM VCSH SCT060 BKN090=



000
FTUS45 KTFX 212100 AAA
TAFLWT
TAF AMD
KLWT 212109Z 2121/2218 10008KT P6SM SKC
     FM221500 25009KT P6SM SCT200=



000
FTUS45 KTFX 211700
TAFHLN
TAF
KHLN 211720Z 2118/2218 VRB05KT P6SM SKC
     FM220300 VRB06KT P6SM SCT200
     FM221400 26007KT P6SM BKN200=



000
FTUS45 KTFX 211700
TAFBZN
TAF
KBZN 211720Z 2118/2218 VRB05KT P6SM SCT200
     FM220200 15006KT P6SM SCT100 BKN200
     FM221200 VRB05KT P6SM VCSH SCT060 BKN100=



000
FTUS45 KTFX 211700
TAFGTF
TAF
KGTF 211720Z 2118/2218 12009KT P6SM SKC
     FM220400 21006KT P6SM SCT200=



000
FTUS45 KTFX 211700
TAFCTB
TAF
KCTB 211720Z 2118/2218 15011KT P6SM SKC
     FM221200 25007KT P6SM SCT200=



000
FTUS45 KTFX 211700
TAFHVR
TAF
KHVR 211720Z 2118/2218 10008KT P6SM SKC
     FM212200 14012KT P6SM SKC
     FM221600 18007KT P6SM SCT200=



000
FTUS45 KTFX 211700
TAFLWT
TAF
KLWT 211720Z 2118/2218 13012KT P6SM SKC
     FM221500 25009KT P6SM SCT200=



000
FTUS45 KTFX 211100
TAFHVR
TAF
KHVR 211120Z 2112/2212 10010KT P6SM SKC=



000
FTUS45 KTFX 211100
TAFCTB
TAF
KCTB 211120Z 2112/2212 15010KT P6SM SKC=



000
FTUS45 KTFX 211100
TAFGTF
TAF
KGTF 211120Z 2112/2212 21008KT P6SM SKC
     FM211700 12010KT P6SM SKC=



000
FTUS45 KTFX 211100
TAFLWT
TAF
KLWT 211120Z 2112/2212 12010KT P6SM SKC=



000
FTUS45 KTFX 211100
TAFBZN
TAF
KBZN 211120Z 2112/2212 VRB05KT P6SM SCT200
     FM220600 VRB05KT P6SM VCSH SCT060 BKN100=



000
FTUS45 KTFX 211100
TAFHLN
TAF
KHLN 211120Z 2112/2212 VRB05KT P6SM SKC=



000
FTUS45 KTFX 210500
TAFBZN
TAF
KBZN 210520Z 2106/2206 VRB04KT P6SM SKC=



000
FTUS45 KTFX 210500
TAFCTB
TAF
KCTB 210520Z 2106/2206 15005KT P6SM SKC
     FM211800 14011KT P6SM SKC=



000
FTUS45 KTFX 210500
TAFGTF
TAF
KGTF 210520Z 2106/2206 11006KT P6SM SKC=



000
FTUS45 KTFX 210500
TAFLWT
TAF
KLWT 210520Z 2106/2206 12005KT P6SM SKC=



000
FTUS45 KTFX 210500
TAFHVR
TAF
KHVR 210520Z 2106/2206 11005KT P6SM SKC=



000
FTUS45 KTFX 210500
TAFHLN
TAF
KHLN 210520Z 2106/2206 25007KT P6SM SKC
     FM211700 06006KT P6SM SKC=



    US Dept of Commerce
    National Oceanic and Atmospheric Administration
    National Weather Service
    1325 East West Highway
    Silver Spring, MD 20910
    Page Author: NWS Internet Services Team
Disclaimer
Information Quality
Credits
Glossary
Privacy Policy
Freedom of Information Act (FOIA)
About Us
Career Opportunities